createdAt,value
2022-10-21T00:00:31.190Z,84.24
2022-10-21T00:01:35.008Z,84.41
2022-10-21T00:02:37.938Z,84.06
2022-10-21T00:03:43.475Z,84.33
2022-10-21T00:04:46.161Z,84.43
2022-10-21T00:05:50.327Z,84.17
2022-10-21T00:06:53.068Z,83.96
2022-10-21T00:07:56.913Z,84.39
2022-10-21T00:08:59.665Z,84.24
2022-10-21T00:10:03.541Z,83.98
2022-10-21T00:11:07.601Z,84.12
2022-10-21T00:12:11.444Z,84.44
2022-10-21T00:13:14.188Z,84.27
2022-10-21T00:14:17.989Z,84.12
2022-10-21T00:15:20.781Z,84.13
2022-10-21T00:16:24.519Z,84.37
2022-10-21T00:17:27.208Z,84.65
2022-10-21T00:18:31.305Z,84.73
2022-10-21T00:19:35.440Z,84.96
2022-10-21T00:20:41.934Z,85.18
2022-10-21T00:21:44.594Z,84.96
2022-10-21T00:22:48.549Z,84.94
2022-10-21T00:23:51.458Z,84.82
2022-10-21T00:24:55.200Z,84.83
2022-10-21T00:25:58.148Z,84.87
2022-10-21T00:27:02.997Z,84.90
2022-10-21T00:28:05.714Z,84.98
2022-10-21T00:29:09.574Z,84.82
2022-10-21T00:30:13.279Z,84.88
2022-10-21T00:31:17.858Z,84.75
2022-10-21T00:32:20.658Z,84.69
2022-10-21T00:33:25.180Z,84.82
2022-10-21T00:34:30.734Z,84.85
2022-10-21T00:35:36.798Z,84.65
2022-10-21T00:36:39.579Z,84.71
2022-10-21T00:37:43.280Z,84.20
2022-10-21T00:38:47.421Z,84.42
2022-10-21T00:39:51.199Z,84.63
2022-10-21T00:40:53.975Z,84.77
2022-10-21T00:41:57.758Z,84.87
2022-10-21T00:43:00.819Z,85.08
2022-10-21T00:44:06.514Z,84.96
2022-10-21T00:45:20.258Z,84.46
2022-10-21T00:46:37.956Z,84.49
2022-10-21T00:47:45.130Z,84.58
2022-10-21T00:48:55.470Z,84.88
2022-10-21T00:50:01.508Z,84.81
2022-10-21T00:51:08.900Z,84.91
2022-10-21T00:52:13.941Z,85.10
2022-10-21T00:53:18.359Z,85.14
2022-10-21T00:54:22.349Z,84.91
2022-10-21T00:55:27.662Z,84.95
2022-10-21T00:56:33.560Z,84.65
2022-10-21T00:57:37.627Z,84.64
2022-10-21T00:58:40.605Z,84.71
2022-10-21T00:59:53.373Z,84.61
2022-10-21T01:00:57.155Z,84.61
2022-10-21T01:02:00.950Z,84.72
2022-10-21T01:03:04.355Z,84.56
2022-10-21T01:04:08.168Z,84.46
2022-10-21T01:05:11.887Z,84.10
2022-10-21T01:06:17.450Z,84.47
2022-10-21T01:07:20.378Z,84.15
2022-10-21T01:08:24.579Z,84.42
2022-10-21T01:09:27.621Z,84.37
2022-10-21T01:10:32.159Z,84.33
2022-10-21T01:11:39.659Z,84.24
2022-10-21T01:12:51.449Z,84.57
2022-10-21T01:14:13.760Z,84.92
2022-10-21T01:15:20.341Z,84.83
2022-10-21T01:16:31.959Z,85.16
2022-10-21T01:17:45.394Z,84.86
2022-10-21T01:18:53.778Z,84.85
2022-10-21T01:20:21.672Z,84.66
2022-10-21T01:21:33.620Z,85.03
2022-10-21T01:23:10.819Z,85.04
2022-10-21T01:24:47.798Z,85.37
2022-10-21T01:26:22.540Z,85.28
2022-10-21T01:27:39.292Z,85.50
2022-10-21T01:28:52.351Z,85.25
2022-10-21T01:30:21.609Z,85.00
2022-10-21T01:31:31.249Z,85.00
2022-10-21T01:32:46.234Z,85.31
2022-10-21T01:33:55.087Z,85.36
2022-10-21T01:35:03.153Z,85.12
2022-10-21T01:36:13.373Z,84.91
2022-10-21T01:37:21.161Z,84.86
2022-10-21T01:38:30.407Z,85.40
2022-10-21T01:39:37.948Z,85.57
2022-10-21T01:40:45.939Z,85.74
2022-10-21T01:41:52.860Z,85.62
2022-10-21T01:42:58.678Z,85.85
2022-10-21T01:44:04.994Z,85.48
2022-10-21T01:45:14.328Z,85.65
2022-10-21T01:46:20.647Z,85.71
2022-10-21T01:47:29.228Z,85.81
2022-10-21T01:48:34.649Z,86.01
2022-10-21T01:49:40.840Z,86.20
2022-10-21T01:50:46.187Z,85.84
2022-10-21T01:51:49.950Z,85.69
2022-10-21T01:52:56.039Z,85.76
2022-10-21T01:54:03.483Z,85.64
2022-10-21T01:55:08.988Z,85.54
2022-10-21T01:56:13.701Z,85.43
2022-10-21T01:57:17.426Z,85.35
2022-10-21T01:58:24.729Z,85.03
2022-10-21T01:59:29.743Z,84.88
2022-10-21T02:00:35.334Z,84.57
2022-10-21T02:01:39.506Z,84.95
2022-10-21T02:02:48.004Z,84.61
2022-10-21T02:03:55.543Z,84.45
2022-10-21T02:04:59.962Z,84.16
2022-10-21T02:06:02.628Z,84.67
2022-10-21T02:07:06.628Z,84.63
2022-10-21T02:08:09.790Z,84.26
2022-10-21T02:09:13.627Z,84.56
2022-10-21T02:10:16.880Z,84.50
2022-10-21T02:11:20.988Z,83.73
2022-10-21T02:12:24.407Z,84.26
2022-10-21T02:13:32.516Z,84.17
2022-10-21T02:14:37.516Z,84.25
2022-10-21T02:15:43.500Z,84.58
2022-10-21T02:16:48.681Z,84.13
2022-10-21T02:17:58.498Z,84.52
2022-10-21T02:19:01.250Z,84.38
2022-10-21T02:20:09.498Z,84.42
2022-10-21T02:21:16.741Z,84.56
2022-10-21T02:22:23.699Z,84.57
2022-10-21T02:23:30.828Z,84.60
2022-10-21T02:24:38.737Z,85.23
2022-10-21T02:25:43.337Z,84.82
2022-10-21T02:26:47.137Z,85.06
2022-10-21T02:27:49.866Z,84.68
2022-10-21T02:28:54.767Z,84.39
2022-10-21T02:29:59.675Z,84.98
2022-10-21T02:31:12.416Z,84.90
2022-10-21T02:32:23.227Z,84.69
2022-10-21T02:33:35.170Z,84.58
2022-10-21T02:34:49.032Z,84.66
2022-10-21T02:35:57.191Z,84.55
2022-10-21T02:37:04.690Z,84.70
2022-10-21T02:38:13.609Z,84.75
2022-10-21T02:39:20.690Z,84.58
2022-10-21T02:40:27.317Z,84.75
2022-10-21T02:41:30.709Z,84.57
2022-10-21T02:42:37.269Z,84.69
2022-10-21T02:43:43.169Z,84.39
2022-10-21T02:44:46.868Z,84.26
2022-10-21T02:45:49.659Z,84.61
2022-10-21T02:46:53.928Z,85.04
2022-10-21T02:47:56.640Z,84.82
2022-10-21T02:49:01.849Z,84.64
2022-10-21T02:50:05.189Z,84.79
2022-10-21T02:51:09.559Z,84.66
2022-10-21T02:52:12.529Z,84.60
2022-10-21T02:53:16.350Z,84.43
2022-10-21T02:54:19.027Z,84.24
2022-10-21T02:55:22.780Z,83.67
2022-10-21T02:56:26.759Z,83.95
2022-10-21T02:57:30.600Z,84.18
2022-10-21T02:58:33.198Z,84.43
2022-10-21T02:59:36.919Z,84.21
2022-10-21T03:00:39.664Z,84.00
2022-10-21T03:01:43.398Z,84.05
2022-10-21T03:02:46.084Z,83.58
2022-10-21T03:03:49.858Z,83.24
2022-10-21T03:04:53.938Z,83.77
2022-10-21T03:05:57.689Z,84.17
2022-10-21T03:07:00.408Z,84.06
2022-10-21T03:08:04.129Z,83.84
2022-10-21T03:09:06.996Z,84.11
2022-10-21T03:10:10.977Z,84.40
2022-10-21T03:11:13.678Z,84.56
2022-10-21T03:12:17.380Z,84.62
2022-10-21T03:13:20.129Z,84.26
2022-10-21T03:14:23.939Z,84.25
2022-10-21T03:15:27.178Z,84.34
2022-10-21T03:16:30.921Z,83.77
2022-10-21T03:17:33.670Z,83.95
2022-10-21T03:18:37.586Z,84.34
2022-10-21T03:19:40.280Z,83.98
2022-10-21T03:20:45.598Z,84.11
2022-10-21T03:21:48.338Z,84.09
2022-10-21T03:22:52.135Z,83.97
2022-10-21T03:23:54.860Z,84.47
2022-10-21T03:24:58.568Z,83.82
2022-10-21T03:26:01.260Z,84.37
2022-10-21T03:27:05.251Z,84.79
2022-10-21T03:28:08.021Z,84.40
2022-10-21T03:29:12.159Z,84.66
2022-10-21T03:30:14.870Z,84.08
2022-10-21T03:31:18.620Z,84.31
2022-10-21T03:32:21.320Z,83.82
2022-10-21T03:33:25.105Z,83.97
2022-10-21T03:34:27.737Z,84.34
2022-10-21T03:35:31.456Z,84.41
2022-10-21T03:36:36.628Z,84.30
2022-10-21T03:37:39.438Z,84.33
2022-10-21T03:38:43.168Z,84.54
2022-10-21T03:39:45.838Z,84.12
2022-10-21T03:40:51.640Z,84.22
2022-10-21T03:41:54.399Z,84.07
2022-10-21T03:42:58.257Z,84.12
2022-10-21T03:44:01.158Z,84.39
2022-10-21T03:45:05.009Z,83.64
2022-10-21T03:46:07.916Z,83.96
2022-10-21T03:47:11.720Z,83.78
2022-10-21T03:48:14.658Z,84.01
2022-10-21T03:49:21.307Z,83.75
2022-10-21T03:50:26.757Z,84.28
2022-10-21T03:51:29.763Z,84.02
2022-10-21T03:52:35.056Z,83.85
2022-10-21T03:53:43.394Z,83.98
2022-10-21T03:54:47.587Z,84.09
2022-10-21T03:55:55.683Z,84.39
2022-10-21T03:57:00.330Z,84.46
2022-10-21T03:58:03.091Z,84.71
2022-10-21T03:59:06.922Z,84.49
2022-10-21T04:00:10.629Z,84.93
2022-10-21T04:01:17.269Z,84.90
2022-10-21T04:02:19.942Z,84.51
2022-10-21T04:03:23.836Z,84.14
2022-10-21T04:04:26.497Z,84.65
2022-10-21T04:05:30.278Z,84.79
2022-10-21T04:06:33.014Z,84.18
2022-10-21T04:07:38.307Z,84.25
2022-10-21T04:08:41.086Z,84.08
2022-10-21T04:09:44.859Z,84.07
2022-10-21T04:10:48.250Z,84.38
2022-10-21T04:11:52.069Z,84.10
2022-10-21T04:12:54.749Z,84.38
2022-10-21T04:13:58.468Z,84.02
2022-10-21T04:15:01.121Z,84.51
2022-10-21T04:16:07.428Z,84.60
2022-10-21T04:17:10.097Z,84.74
2022-10-21T04:18:13.930Z,84.36
2022-10-21T04:19:18.747Z,84.32
2022-10-21T04:20:22.706Z,84.61
2022-10-21T04:21:25.441Z,84.27
2022-10-21T04:22:29.210Z,84.76
2022-10-21T04:23:33.378Z,84.39
2022-10-21T04:24:37.153Z,84.39
2022-10-21T04:25:39.850Z,84.03
2022-10-21T04:26:43.860Z,84.10
2022-10-21T04:27:46.550Z,83.98
2022-10-21T04:28:50.368Z,84.46
2022-10-21T04:29:53.056Z,84.48
2022-10-21T04:30:56.797Z,84.40
2022-10-21T04:31:59.511Z,84.04
2022-10-21T04:33:03.351Z,84.37
2022-10-21T04:34:06.075Z,84.75
2022-10-21T04:35:10.079Z,84.63
2022-10-21T04:36:12.740Z,84.42
2022-10-21T04:37:16.488Z,84.60
2022-10-21T04:38:19.159Z,84.42
2022-10-21T04:39:24.329Z,84.33
2022-10-21T04:40:27.161Z,84.06
2022-10-21T04:41:30.867Z,84.64
2022-10-21T04:42:33.528Z,84.47
2022-10-21T04:43:38.806Z,84.12
2022-10-21T04:44:41.486Z,84.08
2022-10-21T04:45:45.269Z,84.43
2022-10-21T04:46:48.017Z,84.29
2022-10-21T04:47:51.749Z,83.90
2022-10-21T04:48:54.517Z,83.70
2022-10-21T04:49:58.267Z,83.39
2022-10-21T04:51:00.968Z,84.19
2022-10-21T04:52:04.872Z,84.47
2022-10-21T04:53:07.708Z,84.29
2022-10-21T04:54:13.578Z,84.17
2022-10-21T04:55:17.858Z,84.04
2022-10-21T04:56:21.531Z,84.00
2022-10-21T04:57:24.247Z,84.76
2022-10-21T04:58:28.081Z,84.61
2022-10-21T04:59:31.749Z,84.76
2022-10-21T05:00:34.515Z,85.30
2022-10-21T05:01:38.229Z,84.89
2022-10-21T05:02:41.333Z,85.16
2022-10-21T05:03:45.968Z,85.27
2022-10-21T05:04:48.691Z,85.37
2022-10-21T05:05:53.114Z,85.29
2022-10-21T05:06:55.757Z,85.20
2022-10-21T05:07:59.560Z,85.71
2022-10-21T05:09:02.259Z,85.09
2022-10-21T05:10:06.834Z,85.35
2022-10-21T05:11:12.067Z,84.98
2022-10-21T05:12:15.831Z,85.39
2022-10-21T05:13:18.571Z,85.99
2022-10-21T05:14:22.931Z,85.85
2022-10-21T05:15:26.299Z,86.09
2022-10-21T05:16:30.131Z,86.00
2022-10-21T05:17:32.962Z,86.46
2022-10-21T05:18:36.908Z,86.86
2022-10-21T05:19:39.693Z,87.02
2022-10-21T05:20:43.722Z,86.63
2022-10-21T05:21:47.962Z,86.43
2022-10-21T05:22:52.089Z,86.59
2022-10-21T05:23:55.770Z,86.43
2022-10-21T05:24:58.507Z,86.95
2022-10-21T05:26:02.429Z,86.50
2022-10-21T05:27:06.706Z,86.71
2022-10-21T05:28:10.798Z,86.53
2022-10-21T05:29:13.741Z,86.60
2022-10-21T05:30:17.589Z,86.58
2022-10-21T05:31:20.519Z,86.93
2022-10-21T05:32:24.609Z,86.98
2022-10-21T05:33:27.360Z,86.50
2022-10-21T05:34:31.110Z,86.78
2022-10-21T05:35:33.978Z,87.03
2022-10-21T05:36:37.829Z,86.76
2022-10-21T05:37:40.799Z,86.58
2022-10-21T05:38:44.967Z,86.98
2022-10-21T05:39:47.909Z,87.07
2022-10-21T05:40:51.829Z,86.47
2022-10-21T05:41:55.663Z,86.60
2022-10-21T05:42:59.885Z,86.59
2022-10-21T05:44:03.568Z,87.30
2022-10-21T05:45:07.874Z,87.51
2022-10-21T05:46:11.838Z,87.43
2022-10-21T05:47:14.950Z,87.63
2022-10-21T05:48:19.567Z,87.96
2022-10-21T05:49:23.530Z,88.21
2022-10-21T05:50:26.301Z,88.54
2022-10-21T05:51:30.161Z,88.57
2022-10-21T05:52:32.871Z,87.47
2022-10-21T05:53:36.690Z,86.48
2022-10-21T05:54:39.523Z,86.37
2022-10-21T05:55:43.351Z,87.04
2022-10-21T05:56:48.348Z,88.21
2022-10-21T05:58:57.649Z,89.66
2022-10-21T06:00:00.369Z,89.24
2022-10-21T06:01:04.482Z,89.14
2022-10-21T06:02:07.713Z,89.08
2022-10-21T06:03:11.608Z,89.32
2022-10-21T06:04:15.532Z,89.39
2022-10-21T06:05:18.417Z,89.43
2022-10-21T06:06:22.220Z,89.84
2022-10-21T06:07:25.018Z,89.84
2022-10-21T06:08:29.905Z,90.45
2022-10-21T06:09:32.728Z,90.52
2022-10-21T06:10:36.724Z,90.60
2022-10-21T06:11:39.598Z,90.88
2022-10-21T06:12:43.407Z,91.06
2022-10-21T06:13:46.371Z,91.24
2022-10-21T06:14:51.672Z,91.46
2022-10-21T06:15:54.488Z,91.26
2022-10-21T06:16:58.571Z,91.14
2022-10-21T06:18:01.498Z,91.56
2022-10-21T06:19:05.402Z,91.42
2022-10-21T06:20:09.058Z,91.54
2022-10-21T06:21:13.248Z,91.95
2022-10-21T06:22:16.128Z,91.77
2022-10-21T06:23:20.000Z,91.57
2022-10-21T06:24:24.622Z,91.92
2022-10-21T06:25:27.586Z,91.87
2022-10-21T06:26:33.352Z,92.33
2022-10-21T06:27:39.435Z,92.15
2022-10-21T06:28:44.644Z,91.97
2022-10-21T06:29:47.469Z,91.87
2022-10-21T06:30:52.930Z,91.43
2022-10-21T06:31:55.618Z,91.23
2022-10-21T06:32:59.431Z,91.46
2022-10-21T06:34:03.189Z,91.52
2022-10-21T06:35:06.394Z,91.47
2022-10-21T06:36:10.379Z,91.14
2022-10-21T06:37:14.157Z,90.59
2022-10-21T06:38:17.359Z,90.75
2022-10-21T06:39:21.180Z,90.43
2022-10-21T06:40:23.948Z,90.64
2022-10-21T06:41:27.707Z,90.30
2022-10-21T06:42:31.567Z,90.63
2022-10-21T06:43:34.559Z,90.43
2022-10-21T06:44:38.371Z,90.54
2022-10-21T06:45:41.248Z,90.58
2022-10-21T06:46:46.428Z,90.96
2022-10-21T06:47:49.189Z,90.70
2022-10-21T06:48:53.058Z,90.96
2022-10-21T06:49:55.999Z,90.69
2022-10-21T06:51:00.770Z,90.71
2022-10-21T06:52:03.480Z,91.05
2022-10-21T06:53:07.875Z,90.92
2022-10-21T06:54:11.872Z,91.32
2022-10-21T06:55:14.916Z,91.13
2022-10-21T06:56:20.161Z,91.22
2022-10-21T06:57:24.067Z,91.26
2022-10-21T06:58:26.938Z,91.90
2022-10-21T06:59:30.809Z,91.96
2022-10-21T07:00:33.562Z,92.16
2022-10-21T07:01:48.403Z,92.65
2022-10-21T07:03:02.981Z,92.71
2022-10-21T07:04:07.032Z,92.76
2022-10-21T07:05:11.618Z,92.99
2022-10-21T07:06:14.868Z,92.91
2022-10-21T07:07:18.980Z,92.52
2022-10-21T07:08:22.566Z,92.67
2022-10-21T07:09:38.336Z,92.08
2022-10-21T07:10:45.283Z,91.79
2022-10-21T07:11:49.139Z,91.51
2022-10-21T07:12:52.920Z,91.68
2022-10-21T07:13:55.934Z,91.30
2022-10-21T07:15:00.266Z,91.74
2022-10-21T07:16:04.882Z,91.83
2022-10-21T07:17:08.900Z,91.67
2022-10-21T07:18:13.147Z,91.69
2022-10-21T07:19:16.976Z,91.64
2022-10-21T07:20:20.790Z,91.74
2022-10-21T07:21:25.440Z,91.56
2022-10-21T07:22:29.219Z,91.90
2022-10-21T07:23:31.981Z,92.00
2022-10-21T07:24:36.202Z,91.69
2022-10-21T07:25:39.098Z,91.87
2022-10-21T07:26:42.868Z,92.09
2022-10-21T07:27:48.107Z,92.08
2022-10-21T07:28:52.640Z,91.71
2022-10-21T07:29:56.427Z,91.82
2022-10-21T07:30:59.229Z,91.27
2022-10-21T07:32:03.040Z,91.02
2022-10-21T07:33:05.878Z,90.79
2022-10-21T07:34:13.100Z,90.42
2022-10-21T07:35:15.930Z,89.80
2022-10-21T07:36:21.635Z,89.56
2022-10-21T07:37:24.460Z,89.51
2022-10-21T07:38:28.380Z,89.69
2022-10-21T07:39:32.851Z,88.83
2022-10-21T07:40:40.751Z,88.72
2022-10-21T07:41:46.572Z,88.61
2022-10-21T07:42:50.366Z,88.76
2022-10-21T07:43:54.648Z,88.05
2022-10-21T07:45:00.139Z,87.95
2022-10-21T07:46:06.806Z,87.75
2022-10-21T07:47:11.055Z,87.33
2022-10-21T07:48:13.748Z,87.19
2022-10-21T07:49:20.161Z,86.69
2022-10-21T07:50:22.995Z,86.36
2022-10-21T07:51:30.331Z,86.23
2022-10-21T07:52:37.116Z,86.28
2022-10-21T07:53:45.565Z,85.54
2022-10-21T07:54:49.370Z,85.49
2022-10-21T07:56:02.640Z,85.42
2022-10-21T07:57:06.475Z,84.88
2022-10-21T07:58:09.280Z,85.38
2022-10-21T07:59:14.118Z,85.34
2022-10-21T08:00:17.928Z,85.00
2022-10-21T08:01:21.722Z,85.34
2022-10-21T08:02:25.998Z,84.62
2022-10-21T08:03:29.432Z,84.37
2022-10-21T08:04:34.665Z,84.20
2022-10-21T08:05:42.181Z,84.13
2022-10-21T08:06:46.945Z,83.62
2022-10-21T08:07:49.821Z,83.63
2022-10-21T08:08:53.643Z,83.14
2022-10-21T08:09:57.882Z,83.10
2022-10-21T08:11:01.025Z,83.43
2022-10-21T08:12:05.393Z,82.38
2022-10-21T08:13:08.342Z,83.25
2022-10-21T08:14:12.832Z,83.11
2022-10-21T08:15:16.839Z,83.13
2022-10-21T08:16:19.821Z,83.44
2022-10-21T08:17:23.630Z,83.49
2022-10-21T08:18:26.650Z,82.79
2022-10-21T08:19:30.720Z,82.72
2022-10-21T08:20:34.931Z,83.37
2022-10-21T08:21:39.327Z,82.40
2022-10-21T08:22:43.049Z,82.18
2022-10-21T08:23:46.812Z,82.13
2022-10-21T08:24:50.641Z,82.33
2022-10-21T08:25:55.297Z,81.79
2022-10-21T08:26:59.919Z,81.14
2022-10-21T08:28:03.388Z,80.30
2022-10-21T08:29:07.278Z,80.59
2022-10-21T08:30:10.929Z,81.06
2022-10-21T08:31:16.838Z,80.62
2022-10-21T08:32:20.699Z,80.43
2022-10-21T08:33:23.660Z,80.81
2022-10-21T08:34:27.810Z,80.88
2022-10-21T08:35:33.968Z,80.69
2022-10-21T08:36:39.766Z,80.10
2022-10-21T08:37:43.444Z,79.64
2022-10-21T08:38:47.738Z,80.21
2022-10-21T08:39:50.678Z,80.36
2022-10-21T08:40:55.794Z,80.42
2022-10-21T08:42:05.227Z,79.61
2022-10-21T08:43:10.242Z,79.39
2022-10-21T08:44:21.443Z,79.74
2022-10-21T08:45:30.837Z,79.53
2022-10-21T08:46:39.481Z,79.30
2022-10-21T08:47:46.538Z,78.72
2022-10-21T08:48:52.043Z,78.70
2022-10-21T08:50:01.652Z,79.20
2022-10-21T08:51:06.795Z,78.80
2022-10-21T08:52:15.487Z,78.54
2022-10-21T08:53:22.442Z,78.20
2022-10-21T08:54:31.119Z,78.23
2022-10-21T08:55:36.760Z,78.25
2022-10-21T08:56:39.594Z,77.57
2022-10-21T08:57:43.590Z,77.89
2022-10-21T08:58:48.910Z,77.07
2022-10-21T08:59:51.581Z,76.99
2022-10-21T09:00:58.098Z,77.18
2022-10-21T09:02:06.158Z,77.32
2022-10-21T09:03:18.126Z,76.85
2022-10-21T09:04:28.687Z,76.23
2022-10-21T09:05:42.986Z,75.67
2022-10-21T09:06:50.311Z,75.71
2022-10-21T09:08:02.573Z,76.12
2022-10-21T09:09:15.326Z,75.74
2022-10-21T09:10:21.552Z,76.04
2022-10-21T09:11:31.007Z,75.86
2022-10-21T09:12:39.340Z,76.32
2022-10-21T09:14:15.235Z,76.42
2022-10-21T09:15:22.975Z,76.64
2022-10-21T09:16:33.498Z,76.16
2022-10-21T09:17:52.661Z,75.40
2022-10-21T09:19:03.403Z,75.49
2022-10-21T09:20:18.478Z,75.54
2022-10-21T09:21:28.210Z,75.50
2022-10-21T09:22:43.384Z,76.01
2022-10-21T09:23:55.493Z,75.28
2022-10-21T09:25:01.637Z,75.08
2022-10-21T09:26:09.699Z,75.17
2022-10-21T09:27:13.431Z,75.18
2022-10-21T09:28:17.825Z,75.34
2022-10-21T09:29:25.950Z,75.13
2022-10-21T09:30:29.680Z,74.92
2022-10-21T09:31:32.337Z,74.69
2022-10-21T09:32:39.431Z,75.15
2022-10-21T09:33:47.498Z,74.83
2022-10-21T09:34:56.369Z,75.20
2022-10-21T09:36:04.992Z,75.31
2022-10-21T09:37:13.962Z,74.91
2022-10-21T09:38:22.450Z,74.87
2022-10-21T09:39:33.488Z,74.89
2022-10-21T09:40:37.326Z,74.93
2022-10-21T09:41:43.729Z,74.24
2022-10-21T09:42:50.718Z,74.92
2022-10-21T09:43:56.378Z,74.77
2022-10-21T09:44:59.309Z,74.94
2022-10-21T09:46:03.036Z,74.58
2022-10-21T09:47:17.970Z,74.77
2022-10-21T09:48:30.150Z,74.65
2022-10-21T09:50:02.152Z,74.58
2022-10-21T09:51:02.579Z,74.50
2022-10-21T09:52:07.516Z,74.92
2022-10-21T09:53:16.509Z,74.52
2022-10-21T09:54:23.078Z,74.33
2022-10-21T09:55:27.954Z,74.53
2022-10-21T09:56:37.475Z,74.25
2022-10-21T09:57:48.508Z,74.69
2022-10-21T09:58:57.663Z,74.42
2022-10-21T10:00:08.274Z,74.21
2022-10-21T10:01:18.961Z,73.97
2022-10-21T10:02:29.257Z,73.96
2022-10-21T10:03:33.822Z,74.20
2022-10-21T10:04:37.757Z,73.98
2022-10-21T10:05:44.167Z,74.18
2022-10-21T10:06:47.958Z,73.51
2022-10-21T10:07:50.641Z,73.10
2022-10-21T10:09:07.631Z,73.34
2022-10-21T10:10:32.990Z,72.92
2022-10-21T10:11:50.473Z,72.54
2022-10-21T10:12:57.249Z,72.81
2022-10-21T10:14:22.537Z,73.24
2022-10-21T10:15:33.900Z,73.42
2022-10-21T10:16:37.912Z,72.04
2022-10-21T10:17:40.699Z,72.51
2022-10-21T10:18:44.700Z,72.00
2022-10-21T10:20:23.534Z,72.49
2022-10-21T10:21:26.239Z,71.75
2022-10-21T10:22:29.927Z,72.02
2022-10-21T10:23:44.560Z,71.45
2022-10-21T10:24:47.272Z,71.71
2022-10-21T10:25:53.538Z,71.79
2022-10-21T10:26:56.218Z,71.17
2022-10-21T10:28:01.491Z,71.29
2022-10-21T10:29:11.308Z,70.55
2022-10-21T10:30:14.706Z,70.98
2022-10-21T10:31:25.442Z,70.34
2022-10-21T10:32:32.923Z,70.46
2022-10-21T10:33:36.488Z,70.53
2022-10-21T10:34:51.640Z,71.06
2022-10-21T10:35:57.605Z,70.81
2022-10-21T10:37:03.930Z,70.85
2022-10-21T10:38:07.787Z,70.68
2022-10-21T10:39:21.430Z,70.70
2022-10-21T10:40:26.307Z,70.19
2022-10-21T10:41:37.908Z,70.25
2022-10-21T10:42:46.684Z,70.13
2022-10-21T10:43:51.399Z,70.29
2022-10-21T10:44:57.127Z,70.17
2022-10-21T10:46:01.925Z,69.47
2022-10-21T10:47:07.558Z,70.08
2022-10-21T10:48:21.870Z,70.43
2022-10-21T10:49:26.308Z,70.04
2022-10-21T10:50:42.751Z,70.29
2022-10-21T10:51:48.718Z,70.76
2022-10-21T10:53:16.169Z,67.92
2022-10-21T10:54:22.880Z,68.74
2022-10-21T10:55:25.600Z,69.98
2022-10-21T10:56:30.799Z,69.82
2022-10-21T10:57:44.359Z,69.92
2022-10-21T10:59:17.639Z,70.17
2022-10-21T11:00:21.953Z,69.36
2022-10-21T11:01:28.648Z,70.14
2022-10-21T11:02:37.381Z,69.72
2022-10-21T11:03:45.092Z,69.16
2022-10-21T11:05:01.698Z,69.56
2022-10-21T11:06:11.150Z,68.81
2022-10-21T11:07:16.638Z,68.50
2022-10-21T11:08:24.549Z,68.34
2022-10-21T11:09:27.872Z,68.37
2022-10-21T11:10:36.273Z,67.63
2022-10-21T11:11:42.417Z,68.05
2022-10-21T11:12:46.520Z,67.93
2022-10-21T11:13:50.533Z,68.32
2022-10-21T11:14:55.664Z,68.39
2022-10-21T11:16:21.030Z,67.11
2022-10-21T11:17:29.817Z,67.45
2022-10-21T11:18:36.907Z,67.17
2022-10-21T11:19:47.860Z,67.61
2022-10-21T11:20:58.488Z,67.76
2022-10-21T11:22:10.201Z,68.18
2022-10-21T11:23:23.777Z,67.53
2022-10-21T11:24:43.079Z,67.55
2022-10-21T11:25:50.408Z,67.76
2022-10-21T11:26:57.568Z,67.52
2022-10-21T11:28:12.878Z,66.96
2022-10-21T11:29:37.429Z,66.81
2022-10-21T11:30:55.250Z,66.62
2022-10-21T11:32:11.942Z,66.46
2022-10-21T11:33:22.633Z,66.43
2022-10-21T11:34:33.227Z,66.67
2022-10-21T11:35:47.807Z,65.94
2022-10-21T11:36:59.709Z,66.12
2022-10-21T11:38:38.690Z,66.05
2022-10-21T11:39:45.040Z,66.25
2022-10-21T11:40:50.450Z,66.15
2022-10-21T11:41:58.368Z,65.08
2022-10-21T11:43:12.887Z,65.51
2022-10-21T11:44:21.333Z,65.36
2022-10-21T11:45:39.152Z,64.83
2022-10-21T11:46:51.634Z,64.71
2022-10-21T11:47:58.848Z,64.37
2022-10-21T11:49:11.038Z,64.62
2022-10-21T11:51:41.240Z,63.22
2022-10-21T11:52:51.198Z,63.13
2022-10-21T11:54:07.202Z,62.64
2022-10-21T11:55:29.479Z,63.15
2022-10-21T11:56:40.163Z,62.58
2022-10-21T11:57:51.478Z,62.53
2022-10-21T11:59:04.947Z,62.30
2022-10-21T12:00:13.211Z,61.56
2022-10-21T12:01:30.668Z,60.89
2022-10-21T12:02:43.652Z,61.22
2022-10-21T12:04:05.118Z,61.29
2022-10-21T12:05:13.161Z,61.01
2022-10-21T12:06:27.640Z,61.77
2022-10-21T12:07:43.001Z,60.99
2022-10-21T12:08:52.618Z,61.41
2022-10-21T12:10:00.356Z,61.22
2022-10-21T12:11:06.153Z,60.69
2022-10-21T12:12:12.888Z,60.10
2022-10-21T12:13:21.579Z,60.80
2022-10-21T12:14:31.616Z,60.80
2022-10-21T12:15:41.460Z,60.19
2022-10-21T12:16:45.122Z,60.13
2022-10-21T12:17:50.029Z,60.18
2022-10-21T12:18:56.012Z,60.03
2022-10-21T12:20:02.270Z,59.50
2022-10-21T12:21:05.273Z,59.46
2022-10-21T12:22:12.465Z,59.14
2022-10-21T12:23:19.000Z,59.30
2022-10-21T12:24:27.590Z,59.65
2022-10-21T12:25:38.491Z,60.08
2022-10-21T12:26:46.093Z,60.00
2022-10-21T12:27:53.618Z,59.57
2022-10-21T12:28:59.316Z,59.54
2022-10-21T12:30:13.130Z,58.95
2022-10-21T12:31:28.722Z,58.86
2022-10-21T12:32:38.880Z,58.86
2022-10-21T12:33:45.089Z,58.17
2022-10-21T12:34:47.919Z,58.43
2022-10-21T12:35:53.426Z,57.64
2022-10-21T12:36:57.211Z,57.55
2022-10-21T12:38:22.873Z,57.06
2022-10-21T12:39:51.687Z,56.52
2022-10-21T12:41:23.243Z,57.13
2022-10-21T12:42:30.005Z,57.90
2022-10-21T12:43:32.764Z,57.71
2022-10-21T12:44:39.085Z,58.07
2022-10-21T12:45:43.854Z,58.36
2022-10-21T12:46:49.979Z,58.14
2022-10-21T12:47:53.398Z,57.93
2022-10-21T12:48:57.542Z,58.46
2022-10-21T12:50:24.499Z,58.38
2022-10-21T12:51:29.418Z,58.60
2022-10-21T12:52:38.411Z,58.40
2022-10-21T12:53:43.058Z,58.75
2022-10-21T12:54:57.177Z,59.03
2022-10-21T12:56:00.999Z,59.11
2022-10-21T12:57:06.678Z,59.38
2022-10-21T12:58:23.338Z,58.89
2022-10-21T12:59:31.080Z,58.92
2022-10-21T13:00:57.729Z,58.05
2022-10-21T13:02:36.028Z,58.53
2022-10-21T13:03:55.277Z,58.62
2022-10-21T13:05:00.104Z,58.91
2022-10-21T13:06:06.346Z,58.91
2022-10-21T13:07:35.639Z,58.61
2022-10-21T13:08:41.662Z,59.39
2022-10-21T13:10:29.061Z,58.42
2022-10-21T13:11:40.928Z,59.02
2022-10-21T13:12:44.645Z,58.90
2022-10-21T13:13:48.300Z,58.37
2022-10-21T13:14:53.198Z,58.50
2022-10-21T13:15:57.320Z,58.25
2022-10-21T13:17:31.323Z,58.18
2022-10-21T13:19:02.177Z,58.29
2022-10-21T13:20:43.010Z,58.38
2022-10-21T13:21:47.540Z,59.10
2022-10-21T13:22:51.309Z,58.73
2022-10-21T13:23:55.610Z,58.93
2022-10-21T13:24:58.490Z,58.65
2022-10-21T13:26:08.831Z,58.73
2022-10-21T13:27:29.810Z,57.67
2022-10-21T13:28:32.558Z,58.69
2022-10-21T13:29:45.686Z,58.62
2022-10-21T13:30:59.979Z,58.37
2022-10-21T13:32:31.121Z,58.88
2022-10-21T13:33:35.086Z,59.18
2022-10-21T13:34:42.286Z,58.98
2022-10-21T13:35:48.370Z,58.81
2022-10-21T13:36:53.067Z,58.88
2022-10-21T13:37:59.969Z,58.95
2022-10-21T13:39:07.874Z,58.86
2022-10-21T13:40:17.930Z,59.25
2022-10-21T13:41:25.800Z,59.61
2022-10-21T13:42:37.388Z,59.45
2022-10-21T13:43:46.851Z,59.13
2022-10-21T13:44:53.460Z,59.63
2022-10-21T13:46:05.082Z,60.11
2022-10-21T13:47:27.034Z,59.98
2022-10-21T13:48:31.200Z,60.11
2022-10-21T13:49:34.315Z,59.68
2022-10-21T13:50:40.985Z,59.50
2022-10-21T13:51:46.629Z,59.38
2022-10-21T13:52:50.453Z,59.94
2022-10-21T13:53:56.948Z,60.26
2022-10-21T13:55:00.918Z,59.59
2022-10-21T13:56:07.322Z,59.37
2022-10-21T13:57:11.595Z,59.52
2022-10-21T13:58:18.030Z,59.57
2022-10-21T13:59:26.374Z,59.80
2022-10-21T14:00:31.296Z,60.32
2022-10-21T14:01:48.500Z,60.42
2022-10-21T14:02:53.079Z,60.36
2022-10-21T14:04:13.471Z,60.32
2022-10-21T14:05:30.710Z,60.25
2022-10-21T14:06:41.838Z,60.07
2022-10-21T14:07:45.599Z,60.06
2022-10-21T14:08:49.686Z,60.43
2022-10-21T14:09:54.742Z,60.65
2022-10-21T14:11:00.378Z,60.59
2022-10-21T14:12:06.049Z,60.89
2022-10-21T14:13:10.358Z,60.90
2022-10-21T14:14:17.345Z,60.76
2022-10-21T14:15:23.411Z,61.05
2022-10-21T14:16:33.320Z,61.31
2022-10-21T14:17:39.902Z,61.21
2022-10-21T14:18:47.189Z,61.36
2022-10-21T14:19:52.980Z,61.30
2022-10-21T14:20:57.086Z,61.56
2022-10-21T14:22:01.975Z,62.20
2022-10-21T14:23:07.116Z,61.88